Terminal Aerodrome Forecast
Issued by NWS

Home | Current Version | Previous Version | Text Only | Print | Product List | Glossary On
Versions: 1 2 3 4 5 6 7 8 9 10 11 12 13 14 15
000
FTUS41 KAKQ 221700 RRA
TAFPHF
TAF
KPHF 221745Z 2218/2318 05012KT 2SM -RA BR OVC005
     FM221900 06011KT 3SM -DZ BR OVC004
     FM230300 03005KT 1SM -DZ BR OVC003
     FM231400 03002KT 3SM -DZ BR OVC006=

USA.gov is the U.S. government's official web portal to all federal, state and local government web resources and services.